sensor_id;sensor_type;location;lat;lon;timestamp;P1;durP1;ratioP1;P2;durP2;ratioP2
1999;SDS011;1001;48.87406500;9.59633600;2023-04-29T00:01:16;6.80;;;5.53;;
1999;SDS011;1001;48.87406500;9.59633600;2023-04-29T00:03:42;5.90;;;5.30;;
1999;SDS011;1001;48.87406500;9.59633600;2023-04-29T00:06:10;5.70;;;5.10;;
1999;SDS011;1001;48.87406500;9.59633600;2023-04-29T00:08:37;7.13;;;4.83;;
1999;SDS011;1001;48.87406500;9.59633600;2023-04-29T00:11:04;6.60;;;5.70;;
1999;SDS011;1001;48.87406500;9.59633600;2023-04-29T00:13:30;4.83;;;4.33;;
1999;SDS011;1001;48.87406500;9.59633600;2023-04-29T00:15:57;5.00;;;4.60;;
1999;SDS011;1001;48.87406500;9.59633600;2023-04-29T00:18:24;6.70;;;5.00;;
1999;SDS011;1001;48.87406500;9.59633600;2023-04-29T00:20:50;4.87;;;4.47;;
1999;SDS011;1001;48.87406500;9.59633600;2023-04-29T00:23:18;5.77;;;5.13;;
1999;SDS011;1001;48.87406500;9.59633600;2023-04-29T00:25:45;6.60;;;5.77;;
1999;SDS011;1001;48.87406500;9.59633600;2023-04-29T00:28:11;6.93;;;6.23;;
1999;SDS011;1001;48.87406500;9.59633600;2023-04-29T00:30:38;5.90;;;5.30;;
1999;SDS011;1001;48.87406500;9.59633600;2023-04-29T00:33:05;5.47;;;4.97;;
1999;SDS011;1001;48.87406500;9.59633600;2023-04-29T00:35:31;5.20;;;4.77;;
1999;SDS011;1001;48.87406500;9.59633600;2023-04-29T00:37:58;5.23;;;4.40;;
1999;SDS011;1001;48.87406500;9.59633600;2023-04-29T00:40:27;5.13;;;4.67;;
1999;SDS011;1001;48.87406500;9.59633600;2023-04-29T00:42:54;8.33;;;5.10;;
1999;SDS011;1001;48.87406500;9.59633600;2023-04-29T00:45:21;6.27;;;4.60;;
1999;SDS011;1001;48.87406500;9.59633600;2023-04-29T00:47:48;4.70;;;4.30;;
1999;SDS011;1001;48.87406500;9.59633600;2023-04-29T00:50:14;5.27;;;4.77;;
1999;SDS011;1001;48.87406500;9.59633600;2023-04-29T00:52:41;5.63;;;4.43;;
1999;SDS011;1001;48.87406500;9.59633600;2023-04-29T00:55:08;6.73;;;4.40;;
1999;SDS011;1001;48.87406500;9.59633600;2023-04-29T00:57:39;6.03;;;4.20;;
1999;SDS011;1001;48.87406500;9.59633600;2023-04-29T01:00:07;6.33;;;4.63;;
1999;SDS011;1001;48.87406500;9.59633600;2023-04-29T01:02:34;5.30;;;4.47;;
1999;SDS011;1001;48.87406500;9.59633600;2023-04-29T01:05:03;6.57;;;4.80;;
1999;SDS011;1001;48.87406500;9.59633600;2023-04-29T01:07:32;6.33;;;4.93;;
1999;SDS011;1001;48.87406500;9.59633600;2023-04-29T01:10:08;7.10;;;4.60;;
1999;SDS011;1001;48.87406500;9.59633600;2023-04-29T01:12:40;6.17;;;4.80;;
1999;SDS011;1001;48.87406500;9.59633600;2023-04-29T01:15:14;4.90;;;4.40;;
1999;SDS011;1001;48.87406500;9.59633600;2023-04-29T01:17:47;6.77;;;5.73;;
1999;SDS011;1001;48.87406500;9.59633600;2023-04-29T01:20:17;6.23;;;5.63;;
1999;SDS011;1001;48.87406500;9.59633600;2023-04-29T01:22:44;9.17;;;5.13;;
1999;SDS011;1001;48.87406500;9.59633600;2023-04-29T01:25:12;6.47;;;5.63;;
1999;SDS011;1001;48.87406500;9.59633600;2023-04-29T01:27:41;6.07;;;5.40;;
1999;SDS011;1001;48.87406500;9.59633600;2023-04-29T01:30:17;8.00;;;5.27;;
1999;SDS011;1001;48.87406500;9.59633600;2023-04-29T01:32:52;8.10;;;5.50;;
1999;SDS011;1001;48.87406500;9.59633600;2023-04-29T01:35:29;6.07;;;5.30;;
1999;SDS011;1001;48.87406500;9.59633600;2023-04-29T01:38:08;7.03;;;5.60;;
1999;SDS011;1001;48.87406500;9.59633600;2023-04-29T01:40:45;6.90;;;6.03;;
1999;SDS011;1001;48.87406500;9.59633600;2023-04-29T01:43:18;8.20;;;6.13;;
1999;SDS011;1001;48.87406500;9.59633600;2023-04-29T01:45:48;6.87;;;6.17;;
1999;SDS011;1001;48.87406500;9.59633600;2023-04-29T01:48:17;9.47;;;5.90;;
1999;SDS011;1001;48.87406500;9.59633600;2023-04-29T01:50:45;7.17;;;5.93;;
1999;SDS011;1001;48.87406500;9.59633600;2023-04-29T01:53:12;7.80;;;7.00;;
1999;SDS011;1001;48.87406500;9.59633600;2023-04-29T01:55:39;6.80;;;6.00;;
1999;SDS011;1001;48.87406500;9.59633600;2023-04-29T01:58:09;7.90;;;6.70;;
1999;SDS011;1001;48.87406500;9.59633600;2023-04-29T02:00:35;8.00;;;7.20;;
1999;SDS011;1001;48.87406500;9.59633600;2023-04-29T02:03:02;11.47;;;6.53;;
1999;SDS011;1001;48.87406500;9.59633600;2023-04-29T02:05:29;8.20;;;6.83;;
1999;SDS011;1001;48.87406500;9.59633600;2023-04-29T02:07:58;9.27;;;7.00;;
1999;SDS011;1001;48.87406500;9.59633600;2023-04-29T02:10:24;7.50;;;6.77;;
1999;SDS011;1001;48.87406500;9.59633600;2023-04-29T02:12:51;9.83;;;6.47;;
1999;SDS011;1001;48.87406500;9.59633600;2023-04-29T02:15:19;8.40;;;7.10;;
1999;SDS011;1001;48.87406500;9.59633600;2023-04-29T02:17:46;6.87;;;6.20;;
1999;SDS011;1001;48.87406500;9.59633600;2023-04-29T02:20:13;8.07;;;6.60;;
1999;SDS011;1001;48.87406500;9.59633600;2023-04-29T02:22:40;7.90;;;6.73;;
1999;SDS011;1001;48.87406500;9.59633600;2023-04-29T02:25:06;9.30;;;6.77;;
1999;SDS011;1001;48.87406500;9.59633600;2023-04-29T02:27:33;8.73;;;7.43;;
1999;SDS011;1001;48.87406500;9.59633600;2023-04-29T02:30:00;9.03;;;7.17;;
1999;SDS011;1001;48.87406500;9.59633600;2023-04-29T02:32:30;10.57;;;7.77;;
1999;SDS011;1001;48.87406500;9.59633600;2023-04-29T02:34:57;8.10;;;7.30;;
1999;SDS011;1001;48.87406500;9.59633600;2023-04-29T02:37:23;10.97;;;6.77;;
1999;SDS011;1001;48.87406500;9.59633600;2023-04-29T02:39:50;8.53;;;7.63;;
1999;SDS011;1001;48.87406500;9.59633600;2023-04-29T02:42:16;11.60;;;7.70;;
1999;SDS011;1001;48.87406500;9.59633600;2023-04-29T02:44:44;9.03;;;8.17;;
1999;SDS011;1001;48.87406500;9.59633600;2023-04-29T02:47:10;11.50;;;8.93;;
1999;SDS011;1001;48.87406500;9.59633600;2023-04-29T02:49:38;9.80;;;8.07;;
1999;SDS011;1001;48.87406500;9.59633600;2023-04-29T02:52:05;9.83;;;7.77;;
1999;SDS011;1001;48.87406500;9.59633600;2023-04-29T02:54:32;9.73;;;8.73;;
1999;SDS011;1001;48.87406500;9.59633600;2023-04-29T02:56:58;9.10;;;8.20;;
1999;SDS011;1001;48.87406500;9.59633600;2023-04-29T02:59:25;11.73;;;8.23;;
1999;SDS011;1001;48.87406500;9.59633600;2023-04-29T03:01:51;11.13;;;7.90;;
1999;SDS011;1001;48.87406500;9.59633600;2023-04-29T03:04:19;10.20;;;8.80;;
1999;SDS011;1001;48.87406500;9.59633600;2023-04-29T03:06:47;10.03;;;9.03;;
1999;SDS011;1001;48.87406500;9.59633600;2023-04-29T03:09:13;11.33;;;9.30;;
1999;SDS011;1001;48.87406500;9.59633600;2023-04-29T03:11:40;10.10;;;8.83;;
1999;SDS011;1001;48.87406500;9.59633600;2023-04-29T03:14:07;11.80;;;9.67;;
1999;SDS011;1001;48.87406500;9.59633600;2023-04-29T03:16:33;8.80;;;7.90;;
1999;SDS011;1001;48.87406500;9.59633600;2023-04-29T03:19:00;11.50;;;8.10;;
1999;SDS011;1001;48.87406500;9.59633600;2023-04-29T03:21:27;9.33;;;8.40;;
1999;SDS011;1001;48.87406500;9.59633600;2023-04-29T03:23:55;10.63;;;8.70;;
1999;SDS011;1001;48.87406500;9.59633600;2023-04-29T03:26:21;9.30;;;7.83;;
1999;SDS011;1001;48.87406500;9.59633600;2023-04-29T03:28:48;11.40;;;9.13;;
1999;SDS011;1001;48.87406500;9.59633600;2023-04-29T03:31:15;10.53;;;8.90;;
1999;SDS011;1001;48.87406500;9.59633600;2023-04-29T03:33:42;11.70;;;7.83;;
1999;SDS011;1001;48.87406500;9.59633600;2023-04-29T03:36:09;8.63;;;7.80;;
1999;SDS011;1001;48.87406500;9.59633600;2023-04-29T03:38:35;8.40;;;6.73;;
1999;SDS011;1001;48.87406500;9.59633600;2023-04-29T03:41:03;10.13;;;8.20;;
1999;SDS011;1001;48.87406500;9.59633600;2023-04-29T03:43:30;13.20;;;7.70;;
1999;SDS011;1001;48.87406500;9.59633600;2023-04-29T03:45:57;9.00;;;8.10;;
1999;SDS011;1001;48.87406500;9.59633600;2023-04-29T03:48:24;9.60;;;7.17;;
1999;SDS011;1001;48.87406500;9.59633600;2023-04-29T03:50:50;8.80;;;7.53;;
1999;SDS011;1001;48.87406500;9.59633600;2023-04-29T03:53:17;9.47;;;7.60;;
1999;SDS011;1001;48.87406500;9.59633600;2023-04-29T03:55:44;12.17;;;8.43;;
1999;SDS011;1001;48.87406500;9.59633600;2023-04-29T03:58:13;8.47;;;7.57;;
1999;SDS011;1001;48.87406500;9.59633600;2023-04-29T04:00:40;10.70;;;9.00;;
1999;SDS011;1001;48.87406500;9.59633600;2023-04-29T04:03:07;13.13;;;9.33;;
1999;SDS011;1001;48.87406500;9.59633600;2023-04-29T04:05:33;9.27;;;7.87;;
1999;SDS011;1001;48.87406500;9.59633600;2023-04-29T04:08:00;9.13;;;8.23;;
1999;SDS011;1001;48.87406500;9.59633600;2023-04-29T04:10:27;11.87;;;9.70;;
1999;SDS011;1001;48.87406500;9.59633600;2023-04-29T04:12:54;11.93;;;9.93;;
1999;SDS011;1001;48.87406500;9.59633600;2023-04-29T04:15:22;10.50;;;8.67;;
1999;SDS011;1001;48.87406500;9.59633600;2023-04-29T04:17:48;10.13;;;9.03;;
1999;SDS011;1001;48.87406500;9.59633600;2023-04-29T04:20:15;11.70;;;10.00;;
1999;SDS011;1001;48.87406500;9.59633600;2023-04-29T04:22:41;10.20;;;8.47;;
1999;SDS011;1001;48.87406500;9.59633600;2023-04-29T04:25:08;12.07;;;10.03;;
1999;SDS011;1001;48.87406500;9.59633600;2023-04-29T04:27:35;13.33;;;9.17;;
1999;SDS011;1001;48.87406500;9.59633600;2023-04-29T04:30:02;16.20;;;10.80;;
1999;SDS011;1001;48.87406500;9.59633600;2023-04-29T04:32:30;13.30;;;10.00;;
1999;SDS011;1001;48.87406500;9.59633600;2023-04-29T04:34:57;13.03;;;10.80;;
1999;SDS011;1001;48.87406500;9.59633600;2023-04-29T04:37:24;14.07;;;11.07;;
1999;SDS011;1001;48.87406500;9.59633600;2023-04-29T04:39:50;13.47;;;11.07;;
1999;SDS011;1001;48.87406500;9.59633600;2023-04-29T04:42:17;14.77;;;10.67;;
1999;SDS011;1001;48.87406500;9.59633600;2023-04-29T04:44:43;16.63;;;11.37;;
1999;SDS011;1001;48.87406500;9.59633600;2023-04-29T04:47:10;16.20;;;10.93;;
1999;SDS011;1001;48.87406500;9.59633600;2023-04-29T04:49:38;14.37;;;11.10;;
1999;SDS011;1001;48.87406500;9.59633600;2023-04-29T04:52:05;20.33;;;12.07;;
1999;SDS011;1001;48.87406500;9.59633600;2023-04-29T04:54:32;14.87;;;12.00;;
1999;SDS011;1001;48.87406500;9.59633600;2023-04-29T04:56:59;17.37;;;12.70;;
1999;SDS011;1001;48.87406500;9.59633600;2023-04-29T04:59:29;14.00;;;10.93;;
1999;SDS011;1001;48.87406500;9.59633600;2023-04-29T05:01:56;15.90;;;13.10;;
1999;SDS011;1001;48.87406500;9.59633600;2023-04-29T05:04:23;18.27;;;13.30;;
1999;SDS011;1001;48.87406500;9.59633600;2023-04-29T05:06:51;21.40;;;16.40;;
1999;SDS011;1001;48.87406500;9.59633600;2023-04-29T05:09:17;23.87;;;16.17;;
1999;SDS011;1001;48.87406500;9.59633600;2023-04-29T05:11:44;20.53;;;16.63;;
1999;SDS011;1001;48.87406500;9.59633600;2023-04-29T05:14:11;30.70;;;16.70;;
1999;SDS011;1001;48.87406500;9.59633600;2023-04-29T05:16:37;21.73;;;16.47;;
1999;SDS011;1001;48.87406500;9.59633600;2023-04-29T05:19:04;29.10;;;15.97;;
1999;SDS011;1001;48.87406500;9.59633600;2023-04-29T05:21:31;64.50;;;20.13;;
1999;SDS011;1001;48.87406500;9.59633600;2023-04-29T05:23:58;34.63;;;18.10;;
1999;SDS011;1001;48.87406500;9.59633600;2023-04-29T05:26:25;169.70;;;29.93;;
1999;SDS011;1001;48.87406500;9.59633600;2023-04-29T05:28:52;152.50;;;26.73;;
1999;SDS011;1001;48.87406500;9.59633600;2023-04-29T05:31:19;14.33;;;12.70;;
1999;SDS011;1001;48.87406500;9.59633600;2023-04-29T05:33:46;17.93;;;13.40;;
1999;SDS011;1001;48.87406500;9.59633600;2023-04-29T05:36:13;13.73;;;12.20;;
1999;SDS011;1001;48.87406500;9.59633600;2023-04-29T05:38:39;15.20;;;11.60;;
1999;SDS011;1001;48.87406500;9.59633600;2023-04-29T05:41:08;15.87;;;12.00;;
1999;SDS011;1001;48.87406500;9.59633600;2023-04-29T05:43:34;14.37;;;12.43;;
1999;SDS011;1001;48.87406500;9.59633600;2023-04-29T05:46:01;15.17;;;13.30;;
1999;SDS011;1001;48.87406500;9.59633600;2023-04-29T05:48:27;14.83;;;13.33;;
1999;SDS011;1001;48.87406500;9.59633600;2023-04-29T05:50:54;16.97;;;13.80;;
1999;SDS011;1001;48.87406500;9.59633600;2023-04-29T05:53:21;19.97;;;16.30;;
1999;SDS011;1001;48.87406500;9.59633600;2023-04-29T05:55:48;16.40;;;13.00;;
1999;SDS011;1001;48.87406500;9.59633600;2023-04-29T05:58:16;15.53;;;13.53;;
1999;SDS011;1001;48.87406500;9.59633600;2023-04-29T06:00:43;14.13;;;12.70;;
1999;SDS011;1001;48.87406500;9.59633600;2023-04-29T06:03:09;13.87;;;11.57;;
1999;SDS011;1001;48.87406500;9.59633600;2023-04-29T06:05:36;12.90;;;11.60;;
1999;SDS011;1001;48.87406500;9.59633600;2023-04-29T06:08:03;12.40;;;11.10;;
1999;SDS011;1001;48.87406500;9.59633600;2023-04-29T06:10:30;11.47;;;10.27;;
1999;SDS011;1001;48.87406500;9.59633600;2023-04-29T06:12:57;11.97;;;10.83;;
1999;SDS011;1001;48.87406500;9.59633600;2023-04-29T06:15:25;14.53;;;11.10;;
1999;SDS011;1001;48.87406500;9.59633600;2023-04-29T06:17:52;14.10;;;11.37;;
1999;SDS011;1001;48.87406500;9.59633600;2023-04-29T06:20:18;11.93;;;9.70;;
1999;SDS011;1001;48.87406500;9.59633600;2023-04-29T06:22:45;12.50;;;11.13;;
1999;SDS011;1001;48.87406500;9.59633600;2023-04-29T06:25:12;11.87;;;10.70;;
1999;SDS011;1001;48.87406500;9.59633600;2023-04-29T06:27:39;11.90;;;10.63;;
1999;SDS011;1001;48.87406500;9.59633600;2023-04-29T06:30:06;12.47;;;10.50;;
1999;SDS011;1001;48.87406500;9.59633600;2023-04-29T06:32:34;12.10;;;10.90;;
1999;SDS011;1001;48.87406500;9.59633600;2023-04-29T06:35:01;12.20;;;10.90;;
1999;SDS011;1001;48.87406500;9.59633600;2023-04-29T06:37:28;12.93;;;11.57;;
1999;SDS011;1001;48.87406500;9.59633600;2023-04-29T06:39:54;12.27;;;11.17;;
1999;SDS011;1001;48.87406500;9.59633600;2023-04-29T06:42:21;13.60;;;11.50;;
1999;SDS011;1001;48.87406500;9.59633600;2023-04-29T06:44:48;12.23;;;10.30;;
1999;SDS011;1001;48.87406500;9.59633600;2023-04-29T06:47:14;10.93;;;9.87;;
1999;SDS011;1001;48.87406500;9.59633600;2023-04-29T06:49:42;10.23;;;9.13;;
1999;SDS011;1001;48.87406500;9.59633600;2023-04-29T06:52:09;9.40;;;8.50;;
1999;SDS011;1001;48.87406500;9.59633600;2023-04-29T06:54:35;12.37;;;10.50;;
1999;SDS011;1001;48.87406500;9.59633600;2023-04-29T06:57:02;11.70;;;10.50;;
1999;SDS011;1001;48.87406500;9.59633600;2023-04-29T06:59:29;10.73;;;9.70;;
1999;SDS011;1001;48.87406500;9.59633600;2023-04-29T07:01:56;11.40;;;10.20;;
1999;SDS011;1001;48.87406500;9.59633600;2023-04-29T07:04:23;13.97;;;10.80;;
1999;SDS011;1001;48.87406500;9.59633600;2023-04-29T07:06:51;10.97;;;9.87;;
1999;SDS011;1001;48.87406500;9.59633600;2023-04-29T07:09:18;10.97;;;9.90;;
1999;SDS011;1001;48.87406500;9.59633600;2023-04-29T07:11:45;10.53;;;9.53;;
1999;SDS011;1001;48.87406500;9.59633600;2023-04-29T07:14:11;11.10;;;9.57;;
1999;SDS011;1001;48.87406500;9.59633600;2023-04-29T07:16:38;10.53;;;9.43;;
1999;SDS011;1001;48.87406500;9.59633600;2023-04-29T07:19:05;14.00;;;10.33;;
1999;SDS011;1001;48.87406500;9.59633600;2023-04-29T07:21:31;9.70;;;8.70;;
1999;SDS011;1001;48.87406500;9.59633600;2023-04-29T07:23:59;9.83;;;8.87;;
1999;SDS011;1001;48.87406500;9.59633600;2023-04-29T07:26:28;9.70;;;8.70;;
1999;SDS011;1001;48.87406500;9.59633600;2023-04-29T07:28:55;10.40;;;8.00;;
1999;SDS011;1001;48.87406500;9.59633600;2023-04-29T07:31:22;9.33;;;8.53;;
1999;SDS011;1001;48.87406500;9.59633600;2023-04-29T07:33:48;8.37;;;7.57;;
1999;SDS011;1001;48.87406500;9.59633600;2023-04-29T07:36:15;8.70;;;7.80;;
1999;SDS011;1001;48.87406500;9.59633600;2023-04-29T07:38:42;7.97;;;7.17;;
1999;SDS011;1001;48.87406500;9.59633600;2023-04-29T07:41:10;7.67;;;7.03;;
1999;SDS011;1001;48.87406500;9.59633600;2023-04-29T07:43:36;8.00;;;7.20;;
1999;SDS011;1001;48.87406500;9.59633600;2023-04-29T07:46:03;7.73;;;7.03;;
1999;SDS011;1001;48.87406500;9.59633600;2023-04-29T07:48:30;7.97;;;6.70;;
1999;SDS011;1001;48.87406500;9.59633600;2023-04-29T07:50:56;9.00;;;6.57;;
1999;SDS011;1001;48.87406500;9.59633600;2023-04-29T07:53:24;7.27;;;6.57;;
1999;SDS011;1001;48.87406500;9.59633600;2023-04-29T07:55:50;8.80;;;7.83;;
1999;SDS011;1001;48.87406500;9.59633600;2023-04-29T07:58:18;8.20;;;7.07;;
1999;SDS011;1001;48.87406500;9.59633600;2023-04-29T08:00:45;7.40;;;6.50;;
1999;SDS011;1001;48.87406500;9.59633600;2023-04-29T08:03:12;7.63;;;6.93;;
1999;SDS011;1001;48.87406500;9.59633600;2023-04-29T08:05:38;7.30;;;6.33;;
1999;SDS011;1001;48.87406500;9.59633600;2023-04-29T08:08:07;7.27;;;6.57;;
1999;SDS011;1001;48.87406500;9.59633600;2023-04-29T08:10:36;6.87;;;6.27;;
1999;SDS011;1001;48.87406500;9.59633600;2023-04-29T08:13:05;8.73;;;6.40;;
1999;SDS011;1001;48.87406500;9.59633600;2023-04-29T08:15:33;6.17;;;5.67;;
1999;SDS011;1001;48.87406500;9.59633600;2023-04-29T08:18:00;5.40;;;4.90;;
1999;SDS011;1001;48.87406500;9.59633600;2023-04-29T08:20:26;5.07;;;4.67;;
1999;SDS011;1001;48.87406500;9.59633600;2023-04-29T08:22:53;4.83;;;4.23;;
1999;SDS011;1001;48.87406500;9.59633600;2023-04-29T08:25:20;5.70;;;4.80;;
1999;SDS011;1001;48.87406500;9.59633600;2023-04-29T08:27:46;5.47;;;4.97;;
1999;SDS011;1001;48.87406500;9.59633600;2023-04-29T08:30:13;5.83;;;5.30;;
1999;SDS011;1001;48.87406500;9.59633600;2023-04-29T08:32:41;5.83;;;4.80;;
1999;SDS011;1001;48.87406500;9.59633600;2023-04-29T08:35:08;5.63;;;5.13;;
1999;SDS011;1001;48.87406500;9.59633600;2023-04-29T08:37:35;7.00;;;5.40;;
1999;SDS011;1001;48.87406500;9.59633600;2023-04-29T08:40:02;6.40;;;5.50;;
1999;SDS011;1001;48.87406500;9.59633600;2023-04-29T08:42:31;5.67;;;5.17;;
1999;SDS011;1001;48.87406500;9.59633600;2023-04-29T08:44:59;5.50;;;5.00;;
1999;SDS011;1001;48.87406500;9.59633600;2023-04-29T08:47:26;6.57;;;5.93;;
1999;SDS011;1001;48.87406500;9.59633600;2023-04-29T08:49:57;6.13;;;5.20;;
1999;SDS011;1001;48.87406500;9.59633600;2023-04-29T08:52:28;5.57;;;4.83;;
1999;SDS011;1001;48.87406500;9.59633600;2023-04-29T08:54:54;5.93;;;5.00;;
1999;SDS011;1001;48.87406500;9.59633600;2023-04-29T08:57:21;5.13;;;4.63;;
1999;SDS011;1001;48.87406500;9.59633600;2023-04-29T08:59:50;5.03;;;4.63;;
1999;SDS011;1001;48.87406500;9.59633600;2023-04-29T09:02:17;6.63;;;5.93;;
1999;SDS011;1001;48.87406500;9.59633600;2023-04-29T09:04:46;5.27;;;4.73;;
1999;SDS011;1001;48.87406500;9.59633600;2023-04-29T09:07:19;5.33;;;4.83;;
1999;SDS011;1001;48.87406500;9.59633600;2023-04-29T09:09:47;4.87;;;4.37;;
1999;SDS011;1001;48.87406500;9.59633600;2023-04-29T09:12:14;4.90;;;4.30;;
1999;SDS011;1001;48.87406500;9.59633600;2023-04-29T09:14:41;4.90;;;4.50;;
1999;SDS011;1001;48.87406500;9.59633600;2023-04-29T09:17:07;5.40;;;4.90;;
1999;SDS011;1001;48.87406500;9.59633600;2023-04-29T09:19:34;4.40;;;4.07;;
1999;SDS011;1001;48.87406500;9.59633600;2023-04-29T09:22:02;4.30;;;3.90;;
1999;SDS011;1001;48.87406500;9.59633600;2023-04-29T09:24:32;4.73;;;4.00;;
1999;SDS011;1001;48.87406500;9.59633600;2023-04-29T09:26:59;4.60;;;4.20;;
1999;SDS011;1001;48.87406500;9.59633600;2023-04-29T09:29:27;3.90;;;3.50;;
1999;SDS011;1001;48.87406500;9.59633600;2023-04-29T09:31:54;6.27;;;4.00;;
1999;SDS011;1001;48.87406500;9.59633600;2023-04-29T09:34:29;4.47;;;4.03;;
1999;SDS011;1001;48.87406500;9.59633600;2023-04-29T09:36:57;6.43;;;4.13;;
1999;SDS011;1001;48.87406500;9.59633600;2023-04-29T09:39:24;7.07;;;4.07;;
1999;SDS011;1001;48.87406500;9.59633600;2023-04-29T09:41:59;4.83;;;3.43;;
1999;SDS011;1001;48.87406500;9.59633600;2023-04-29T09:44:28;5.00;;;4.50;;
1999;SDS011;1001;48.87406500;9.59633600;2023-04-29T09:46:56;4.83;;;4.43;;
1999;SDS011;1001;48.87406500;9.59633600;2023-04-29T09:49:26;3.60;;;3.30;;
1999;SDS011;1001;48.87406500;9.59633600;2023-04-29T09:51:54;4.63;;;4.23;;
1999;SDS011;1001;48.87406500;9.59633600;2023-04-29T09:54:23;4.30;;;3.93;;
1999;SDS011;1001;48.87406500;9.59633600;2023-04-29T09:56:52;4.70;;;3.90;;
1999;SDS011;1001;48.87406500;9.59633600;2023-04-29T09:59:21;4.40;;;4.00;;
1999;SDS011;1001;48.87406500;9.59633600;2023-04-29T10:01:49;5.77;;;5.27;;
1999;SDS011;1001;48.87406500;9.59633600;2023-04-29T10:04:18;5.77;;;5.20;;
1999;SDS011;1001;48.87406500;9.59633600;2023-04-29T10:06:48;5.17;;;4.67;;
1999;SDS011;1001;48.87406500;9.59633600;2023-04-29T10:09:16;4.77;;;4.27;;
1999;SDS011;1001;48.87406500;9.59633600;2023-04-29T10:11:44;5.23;;;4.73;;
1999;SDS011;1001;48.87406500;9.59633600;2023-04-29T10:14:12;4.73;;;4.07;;
1999;SDS011;1001;48.87406500;9.59633600;2023-04-29T10:16:45;4.83;;;4.37;;
1999;SDS011;1001;48.87406500;9.59633600;2023-04-29T10:19:18;5.10;;;4.53;;
1999;SDS011;1001;48.87406500;9.59633600;2023-04-29T10:21:52;5.57;;;5.00;;
1999;SDS011;1001;48.87406500;9.59633600;2023-04-29T10:24:19;4.60;;;4.20;;
1999;SDS011;1001;48.87406500;9.59633600;2023-04-29T10:26:47;4.53;;;4.13;;
1999;SDS011;1001;48.87406500;9.59633600;2023-04-29T10:29:16;6.00;;;4.33;;
1999;SDS011;1001;48.87406500;9.59633600;2023-04-29T10:31:46;4.60;;;4.20;;
1999;SDS011;1001;48.87406500;9.59633600;2023-04-29T10:34:15;4.20;;;3.80;;
1999;SDS011;1001;48.87406500;9.59633600;2023-04-29T10:36:43;5.57;;;4.20;;
1999;SDS011;1001;48.87406500;9.59633600;2023-04-29T10:39:11;4.20;;;3.40;;
1999;SDS011;1001;48.87406500;9.59633600;2023-04-29T10:41:46;4.80;;;4.00;;
1999;SDS011;1001;48.87406500;9.59633600;2023-04-29T10:44:14;4.43;;;3.90;;
1999;SDS011;1001;48.87406500;9.59633600;2023-04-29T10:46:41;4.60;;;3.80;;
1999;SDS011;1001;48.87406500;9.59633600;2023-04-29T10:49:09;4.43;;;4.03;;
1999;SDS011;1001;48.87406500;9.59633600;2023-04-29T10:51:38;4.53;;;4.13;;
1999;SDS011;1001;48.87406500;9.59633600;2023-04-29T10:54:06;4.43;;;4.03;;
1999;SDS011;1001;48.87406500;9.59633600;2023-04-29T10:56:35;4.47;;;4.07;;
1999;SDS011;1001;48.87406500;9.59633600;2023-04-29T10:59:08;5.27;;;4.30;;
1999;SDS011;1001;48.87406500;9.59633600;2023-04-29T11:01:44;5.07;;;4.57;;
1999;SDS011;1001;48.87406500;9.59633600;2023-04-29T11:04:16;5.60;;;4.23;;
1999;SDS011;1001;48.87406500;9.59633600;2023-04-29T11:06:44;5.83;;;5.00;;
1999;SDS011;1001;48.87406500;9.59633600;2023-04-29T11:09:19;5.60;;;4.87;;
1999;SDS011;1001;48.87406500;9.59633600;2023-04-29T11:11:47;5.57;;;5.07;;
1999;SDS011;1001;48.87406500;9.59633600;2023-04-29T11:14:23;6.87;;;6.20;;
1999;SDS011;1001;48.87406500;9.59633600;2023-04-29T11:16:51;4.63;;;4.20;;
1999;SDS011;1001;48.87406500;9.59633600;2023-04-29T11:19:20;6.20;;;5.60;;
1999;SDS011;1001;48.87406500;9.59633600;2023-04-29T11:21:53;5.90;;;5.20;;
1999;SDS011;1001;48.87406500;9.59633600;2023-04-29T11:24:33;6.60;;;5.00;;
1999;SDS011;1001;48.87406500;9.59633600;2023-04-29T11:27:00;6.00;;;5.23;;
1999;SDS011;1001;48.87406500;9.59633600;2023-04-29T11:29:28;5.10;;;3.93;;
1999;SDS011;1001;48.87406500;9.59633600;2023-04-29T11:31:57;4.53;;;4.00;;
1999;SDS011;1001;48.87406500;9.59633600;2023-04-29T11:34:25;5.33;;;4.83;;
1999;SDS011;1001;48.87406500;9.59633600;2023-04-29T11:36:52;4.60;;;4.20;;
1999;SDS011;1001;48.87406500;9.59633600;2023-04-29T11:39:19;6.77;;;3.90;;
1999;SDS011;1001;48.87406500;9.59633600;2023-04-29T11:41:45;5.83;;;5.27;;
1999;SDS011;1001;48.87406500;9.59633600;2023-04-29T11:44:12;6.50;;;4.87;;
1999;SDS011;1001;48.87406500;9.59633600;2023-04-29T11:46:38;4.20;;;3.30;;
1999;SDS011;1001;48.87406500;9.59633600;2023-04-29T11:49:05;5.30;;;4.00;;
1999;SDS011;1001;48.87406500;9.59633600;2023-04-29T11:51:33;5.00;;;4.50;;
1999;SDS011;1001;48.87406500;9.59633600;2023-04-29T11:53:59;4.50;;;4.10;;
1999;SDS011;1001;48.87406500;9.59633600;2023-04-29T11:56:26;4.20;;;3.30;;
1999;SDS011;1001;48.87406500;9.59633600;2023-04-29T11:58:53;3.20;;;2.90;;
1999;SDS011;1001;48.87406500;9.59633600;2023-04-29T12:01:20;8.33;;;5.07;;
1999;SDS011;1001;48.87406500;9.59633600;2023-04-29T12:03:48;4.30;;;3.90;;
1999;SDS011;1001;48.87406500;9.59633600;2023-04-29T12:06:15;3.53;;;3.23;;
1999;SDS011;1001;48.87406500;9.59633600;2023-04-29T12:08:45;5.10;;;4.17;;
1999;SDS011;1001;48.87406500;9.59633600;2023-04-29T12:11:12;5.67;;;5.17;;
1999;SDS011;1001;48.87406500;9.59633600;2023-04-29T12:13:39;4.03;;;3.70;;
1999;SDS011;1001;48.87406500;9.59633600;2023-04-29T12:16:06;7.80;;;4.87;;
1999;SDS011;1001;48.87406500;9.59633600;2023-04-29T12:18:33;4.77;;;4.37;;
1999;SDS011;1001;48.87406500;9.59633600;2023-04-29T12:21:00;6.17;;;5.57;;
1999;SDS011;1001;48.87406500;9.59633600;2023-04-29T12:23:27;5.43;;;4.80;;
1999;SDS011;1001;48.87406500;9.59633600;2023-04-29T12:25:55;4.30;;;3.90;;
1999;SDS011;1001;48.87406500;9.59633600;2023-04-29T12:28:23;4.63;;;4.03;;
1999;SDS011;1001;48.87406500;9.59633600;2023-04-29T12:30:51;5.50;;;5.00;;
1999;SDS011;1001;48.87406500;9.59633600;2023-04-29T12:33:19;4.30;;;3.83;;
1999;SDS011;1001;48.87406500;9.59633600;2023-04-29T12:35:47;4.10;;;3.70;;
1999;SDS011;1001;48.87406500;9.59633600;2023-04-29T12:38:15;6.00;;;3.87;;
1999;SDS011;1001;48.87406500;9.59633600;2023-04-29T12:40:43;4.83;;;3.80;;
1999;SDS011;1001;48.87406500;9.59633600;2023-04-29T12:43:11;4.50;;;4.10;;
1999;SDS011;1001;48.87406500;9.59633600;2023-04-29T12:45:38;4.60;;;4.20;;
1999;SDS011;1001;48.87406500;9.59633600;2023-04-29T12:48:05;4.63;;;4.23;;
1999;SDS011;1001;48.87406500;9.59633600;2023-04-29T12:50:32;8.03;;;5.10;;
1999;SDS011;1001;48.87406500;9.59633600;2023-04-29T12:53:00;5.20;;;4.70;;
1999;SDS011;1001;48.87406500;9.59633600;2023-04-29T12:55:28;6.20;;;5.60;;
1999;SDS011;1001;48.87406500;9.59633600;2023-04-29T12:57:56;6.97;;;6.27;;
1999;SDS011;1001;48.87406500;9.59633600;2023-04-29T13:00:24;5.43;;;4.93;;
1999;SDS011;1001;48.87406500;9.59633600;2023-04-29T13:02:51;5.07;;;4.67;;
1999;SDS011;1001;48.87406500;9.59633600;2023-04-29T13:05:17;5.80;;;5.17;;
1999;SDS011;1001;48.87406500;9.59633600;2023-04-29T13:07:44;19.03;;;6.23;;